createdAt,value
2023-08-12T00:02:40.454Z,3.83
2023-08-12T00:07:42.712Z,3.70
2023-08-12T00:12:44.544Z,4.03
2023-08-12T00:17:46.226Z,3.90
2023-08-12T00:22:47.869Z,3.72
2023-08-12T00:27:49.465Z,3.85
2023-08-12T00:32:51.561Z,3.97
2023-08-12T00:37:53.311Z,3.95
2023-08-12T00:42:54.933Z,3.97
2023-08-12T00:47:56.721Z,4.05
2023-08-12T00:52:59.655Z,3.97
2023-08-12T00:58:01.671Z,4.05
2023-08-12T01:03:04.314Z,3.50
2023-08-12T01:08:06.107Z,3.90
2023-08-12T01:13:21.002Z,3.78
2023-08-12T01:18:25.156Z,4.60
2023-08-12T01:23:26.986Z,3.72
2023-08-12T01:28:28.607Z,3.55
2023-08-12T01:33:43.767Z,4.32
2023-08-12T01:38:45.712Z,4.00
2023-08-12T01:43:47.562Z,3.83
2023-08-12T01:48:49.326Z,3.80
2023-08-12T01:53:52.809Z,3.70
2023-08-12T01:58:54.572Z,3.40
2023-08-12T02:03:56.292Z,3.83
2023-08-12T02:08:58.020Z,4.10
2023-08-12T02:13:59.693Z,3.70
2023-08-12T02:19:01.313Z,3.55
2023-08-12T02:24:02.941Z,3.33
2023-08-12T02:29:04.983Z,3.63
2023-08-12T02:34:06.699Z,3.78
2023-08-12T02:39:08.348Z,3.67
2023-08-12T02:44:09.973Z,3.53
2023-08-12T02:49:11.672Z,3.83
2023-08-12T02:54:13.307Z,4.05
2023-08-12T02:59:15.020Z,3.70
2023-08-12T03:04:16.713Z,3.70
2023-08-12T03:09:19.497Z,3.67
2023-08-12T03:14:21.192Z,3.72
2023-08-12T03:19:22.935Z,3.50
2023-08-12T03:24:24.614Z,3.80
2023-08-12T03:29:26.364Z,3.60
2023-08-12T03:34:30.782Z,3.65
2023-08-12T03:39:34.188Z,4.10
2023-08-12T03:44:36.983Z,3.78
2023-08-12T03:49:39.191Z,3.83
2023-08-12T03:54:40.986Z,4.05
2023-08-12T03:59:42.813Z,3.95
2023-08-12T04:04:45.107Z,3.70
2023-08-12T04:09:46.892Z,3.78
2023-08-12T04:14:49.494Z,3.45
2023-08-12T04:19:51.219Z,4.35
2023-08-12T04:24:52.979Z,3.75
2023-08-12T04:29:55.881Z,3.13
2023-08-12T04:34:57.845Z,3.47
2023-08-12T04:40:00.672Z,3.70
2023-08-12T04:45:04.406Z,4.30
2023-08-12T04:50:08.075Z,3.22
2023-08-12T04:55:11.797Z,3.75
2023-08-12T05:00:13.996Z,3.38
2023-08-12T05:05:16.126Z,3.50
2023-08-12T05:10:18.305Z,3.22
2023-08-12T05:15:20.231Z,3.10
2023-08-12T05:20:23.156Z,3.28
2023-08-12T05:25:25.077Z,3.40
2023-08-12T05:30:26.773Z,3.40
2023-08-12T05:35:28.415Z,3.10
2023-08-12T05:40:30.688Z,3.83
2023-08-12T05:45:32.367Z,3.50
2023-08-12T05:50:33.985Z,3.25
2023-08-12T05:55:38.400Z,3.67
2023-08-12T06:00:40.023Z,3.25
2023-08-12T06:05:42.405Z,3.22
2023-08-12T06:10:44.196Z,3.00
2023-08-12T06:15:45.853Z,3.08
2023-08-12T06:20:47.510Z,3.05
2023-08-12T06:25:49.424Z,2.83
2023-08-12T06:30:51.103Z,2.95
2023-08-12T06:35:52.727Z,3.00
2023-08-12T06:40:54.362Z,2.95
2023-08-12T06:45:55.988Z,3.10
2023-08-12T06:50:57.886Z,3.13
2023-08-12T06:55:59.518Z,3.15
2023-08-12T07:01:01.248Z,3.03
2023-08-12T07:06:02.935Z,2.90
2023-08-12T07:11:05.774Z,2.80
2023-08-12T07:16:07.491Z,3.15
2023-08-12T07:21:09.257Z,3.45
2023-08-12T07:26:10.904Z,3.00
2023-08-12T07:31:12.627Z,3.63
2023-08-12T07:36:14.653Z,3.17
2023-08-12T07:41:16.273Z,3.30
2023-08-12T07:46:18.045Z,3.25
2023-08-12T07:51:19.784Z,3.17
2023-08-12T07:56:21.451Z,3.22
2023-08-12T08:01:23.098Z,3.03
2023-08-12T08:06:25.025Z,2.90
2023-08-12T08:11:26.706Z,2.90
2023-08-12T08:16:28.978Z,3.30
2023-08-12T08:21:30.767Z,3.47
2023-08-12T08:26:32.420Z,3.08
2023-08-12T08:31:34.054Z,3.20
2023-08-12T08:36:35.675Z,3.10
2023-08-12T08:41:39.934Z,3.20
2023-08-12T08:46:42.753Z,3.05
2023-08-12T08:51:44.936Z,3.20
2023-08-12T08:56:49.384Z,3.30
2023-08-12T09:01:58.167Z,3.10
2023-08-12T09:07:01.647Z,3.20
2023-08-12T09:12:04.207Z,3.08
2023-08-12T09:17:05.833Z,2.75
2023-08-12T09:22:10.661Z,2.40
2023-08-12T09:27:12.664Z,3.00
2023-08-12T09:32:19.098Z,2.78
2023-08-12T09:37:25.296Z,2.50
2023-08-12T09:42:27.084Z,2.58
2023-08-12T09:47:28.823Z,2.33
2023-08-12T09:52:30.541Z,2.30
2023-08-12T09:57:34.281Z,2.35
2023-08-12T10:02:36.043Z,1.75
2023-08-12T10:07:37.781Z,1.60
2023-08-12T10:12:39.990Z,1.60
2023-08-12T10:17:44.030Z,1.75
2023-08-12T10:22:46.579Z,1.60
2023-08-12T10:27:48.397Z,1.90
2023-08-12T10:32:50.524Z,1.63
2023-08-12T10:37:52.390Z,1.70
2023-08-12T10:42:54.304Z,1.73
2023-08-12T10:48:19.182Z,1.52
2023-08-12T10:53:31.040Z,1.60
2023-08-12T10:58:44.866Z,1.60
2023-08-12T11:03:49.913Z,1.70
2023-08-12T11:08:54.889Z,1.90
2023-08-12T11:14:00.487Z,1.80
2023-08-12T11:19:02.449Z,1.85
2023-08-12T11:24:04.910Z,1.77
2023-08-12T11:29:12.135Z,1.83
2023-08-12T11:34:13.888Z,2.08
2023-08-12T11:39:16.387Z,1.88
2023-08-12T11:44:18.381Z,1.80
2023-08-12T11:49:20.022Z,2.00
2023-08-12T11:54:21.747Z,1.95
2023-08-12T11:59:23.738Z,1.90
2023-08-12T12:04:25.491Z,2.20
2023-08-12T12:09:27.355Z,1.90
2023-08-12T12:14:29.594Z,2.03
2023-08-12T12:19:31.816Z,2.40
2023-08-12T12:24:45.046Z,2.15
2023-08-12T12:29:48.544Z,2.30
2023-08-12T12:34:51.003Z,2.10
2023-08-12T12:39:52.853Z,2.58
2023-08-12T12:44:54.561Z,2.60
2023-08-12T12:49:56.265Z,2.58
2023-08-12T12:54:58.703Z,2.50
2023-08-12T13:00:00.869Z,2.97
2023-08-12T13:05:03.034Z,2.38
2023-08-12T13:10:05.209Z,2.38
2023-08-12T13:15:08.158Z,2.75
2023-08-12T13:20:10.844Z,2.75
2023-08-12T13:25:13.381Z,2.60
2023-08-12T13:30:15.680Z,2.83
2023-08-12T13:35:18.516Z,3.33
2023-08-12T13:40:20.228Z,2.60
2023-08-12T13:45:22.480Z,2.78
2023-08-12T13:50:24.363Z,2.80
2023-08-12T13:55:26.808Z,2.90
2023-08-12T14:00:28.681Z,3.35
2023-08-12T14:05:30.576Z,2.83
2023-08-12T14:10:32.266Z,3.10
2023-08-12T14:15:33.911Z,3.80
2023-08-12T14:20:35.544Z,3.13
2023-08-12T14:25:37.173Z,3.08
2023-08-12T14:30:39.945Z,3.40
2023-08-12T14:35:41.822Z,2.95
2023-08-12T14:40:43.602Z,3.30
2023-08-12T14:45:48.181Z,2.90
2023-08-12T14:50:49.840Z,2.78
2023-08-12T14:55:51.533Z,2.65
2023-08-12T15:00:53.258Z,3.75
2023-08-12T15:06:02.323Z,2.72
2023-08-12T15:11:04.298Z,2.40
2023-08-12T15:16:06.385Z,3.33
2023-08-12T15:21:08.058Z,3.35
2023-08-12T15:26:09.836Z,4.28
2023-08-12T15:31:15.892Z,3.00
2023-08-12T15:36:17.577Z,2.72
2023-08-12T15:41:19.288Z,2.92
2023-08-12T15:46:20.949Z,3.17
2023-08-12T15:51:22.673Z,2.70
2023-08-12T15:56:24.593Z,3.10
2023-08-12T16:01:26.336Z,2.50
2023-08-12T16:06:29.537Z,2.63
2023-08-12T16:11:31.371Z,2.60
2023-08-12T16:16:33.429Z,2.70
2023-08-12T16:21:35.051Z,2.78
2023-08-12T16:26:36.758Z,2.80
2023-08-12T16:31:40.504Z,2.85
2023-08-12T16:36:42.846Z,2.78
2023-08-12T16:41:44.525Z,3.40
2023-08-12T16:46:46.244Z,3.10
2023-08-12T16:51:47.987Z,2.83
2023-08-12T16:56:49.626Z,3.80
2023-08-12T17:01:51.352Z,2.65
2023-08-12T17:06:55.990Z,2.60
2023-08-12T17:11:57.613Z,2.35
2023-08-12T17:16:59.286Z,2.75
2023-08-12T17:22:00.996Z,2.38
2023-08-12T17:27:02.742Z,2.38
2023-08-12T17:32:04.551Z,2.60
2023-08-12T17:37:06.155Z,2.50
2023-08-12T17:42:07.923Z,2.20
2023-08-12T17:47:09.585Z,2.55
2023-08-12T17:52:11.624Z,2.60
2023-08-12T17:57:13.577Z,2.60
2023-08-12T18:02:15.505Z,2.70
2023-08-12T18:07:17.466Z,2.50
2023-08-12T18:12:19.369Z,2.72
2023-08-12T18:17:21.133Z,2.78
2023-08-12T18:22:23.092Z,2.50
2023-08-12T18:27:24.731Z,2.63
2023-08-12T18:32:29.365Z,3.10
2023-08-12T18:37:31.460Z,2.28
2023-08-12T18:42:33.411Z,3.25
2023-08-12T18:47:35.105Z,3.00
2023-08-12T18:52:36.833Z,2.45
2023-08-12T18:57:38.595Z,2.45
2023-08-12T19:02:41.148Z,2.38
2023-08-12T19:07:42.814Z,2.53
2023-08-12T19:12:44.437Z,2.60
2023-08-12T19:17:46.074Z,2.67
2023-08-12T19:22:47.772Z,2.83
2023-08-12T19:27:49.359Z,2.22
2023-08-12T19:32:55.141Z,2.42
2023-08-12T19:37:59.944Z,2.30
2023-08-12T19:43:01.696Z,2.00
2023-08-12T19:48:03.572Z,2.30
2023-08-12T19:53:05.942Z,2.20
2023-08-12T19:58:07.672Z,2.53
2023-08-12T20:03:09.469Z,2.22
2023-08-12T20:08:11.161Z,2.50
2023-08-12T20:13:12.859Z,2.63
2023-08-12T20:18:14.584Z,2.35
2023-08-12T20:23:16.275Z,2.47
2023-08-12T20:28:17.869Z,2.20
2023-08-12T20:33:19.547Z,2.83
2023-08-12T20:38:21.332Z,2.80
2023-08-12T20:43:25.331Z,3.10
2023-08-12T20:48:26.941Z,3.40
2023-08-12T20:53:32.460Z,2.70
2023-08-12T20:58:34.130Z,2.97
2023-08-12T21:03:35.889Z,2.30
2023-08-12T21:08:37.640Z,2.50
2023-08-12T21:13:39.257Z,2.58
2023-08-12T21:18:40.891Z,1.80
2023-08-12T21:23:42.597Z,1.60
2023-08-12T21:28:44.200Z,1.80
2023-08-12T21:33:45.856Z,1.40
2023-08-12T21:38:47.513Z,1.60
2023-08-12T21:43:49.183Z,1.30
2023-08-12T21:48:50.994Z,1.63
2023-08-12T21:53:52.635Z,1.40
2023-08-12T21:58:54.774Z,1.55
2023-08-12T22:03:56.468Z,1.83
2023-08-12T22:08:58.279Z,1.70
2023-08-12T22:13:59.893Z,1.63
2023-08-12T22:19:01.526Z,1.65
2023-08-12T22:24:03.252Z,1.40
2023-08-12T22:29:04.905Z,1.52
2023-08-12T22:34:08.563Z,1.70
2023-08-12T22:39:10.217Z,1.60
2023-08-12T22:44:12.278Z,1.48
2023-08-12T22:49:14.388Z,1.80
2023-08-12T22:54:16.174Z,1.63
2023-08-12T22:59:19.169Z,1.88
2023-08-12T23:04:21.001Z,1.52
2023-08-12T23:09:22.626Z,1.73
2023-08-12T23:14:25.021Z,2.22
2023-08-12T23:19:26.685Z,2.05
2023-08-12T23:24:28.390Z,1.70
2023-08-12T23:29:30.071Z,1.80
2023-08-12T23:34:32.595Z,1.70
2023-08-12T23:39:34.339Z,1.88
2023-08-12T23:44:35.970Z,1.67
2023-08-12T23:49:37.645Z,1.80
2023-08-12T23:54:39.272Z,2.00
2023-08-12T23:59:41.097Z,1.90
